sensor_id;sensor_type;location;lat;lon;timestamp;P1;durP1;ratioP1;P2;durP2;ratioP2
17965;SDS011;9108;53.204;10.424;2023-06-04T00:00:26;3.90;;;1.55;;
17965;SDS011;9108;53.204;10.424;2023-06-04T00:02:53;4.15;;;1.55;;
17965;SDS011;9108;53.204;10.424;2023-06-04T00:05:20;3.25;;;1.60;;
17965;SDS011;9108;53.204;10.424;2023-06-04T00:07:51;3.83;;;1.70;;
17965;SDS011;9108;53.204;10.424;2023-06-04T00:10:18;3.25;;;1.60;;
17965;SDS011;9108;53.204;10.424;2023-06-04T00:12:45;5.40;;;1.80;;
17965;SDS011;9108;53.204;10.424;2023-06-04T00:15:13;3.83;;;1.60;;
17965;SDS011;9108;53.204;10.424;2023-06-04T00:17:41;3.70;;;1.70;;
17965;SDS011;9108;53.204;10.424;2023-06-04T00:20:09;2.42;;;1.50;;
17965;SDS011;9108;53.204;10.424;2023-06-04T00:22:36;3.40;;;1.55;;
17965;SDS011;9108;53.204;10.424;2023-06-04T00:25:08;4.13;;;1.47;;
17965;SDS011;9108;53.204;10.424;2023-06-04T00:27:35;3.38;;;1.50;;
17965;SDS011;9108;53.204;10.424;2023-06-04T00:30:02;4.13;;;1.80;;
17965;SDS011;9108;53.204;10.424;2023-06-04T00:32:29;3.55;;;1.70;;
17965;SDS011;9108;53.204;10.424;2023-06-04T00:34:57;4.38;;;1.80;;
17965;SDS011;9108;53.204;10.424;2023-06-04T00:37:24;4.00;;;1.70;;
17965;SDS011;9108;53.204;10.424;2023-06-04T00:39:51;3.20;;;1.77;;
17965;SDS011;9108;53.204;10.424;2023-06-04T00:42:20;3.95;;;1.80;;
17965;SDS011;9108;53.204;10.424;2023-06-04T00:44:47;4.55;;;1.77;;
17965;SDS011;9108;53.204;10.424;2023-06-04T00:47:14;4.00;;;1.70;;
17965;SDS011;9108;53.204;10.424;2023-06-04T00:49:42;4.55;;;1.90;;
17965;SDS011;9108;53.204;10.424;2023-06-04T00:52:10;5.32;;;1.95;;
17965;SDS011;9108;53.204;10.424;2023-06-04T00:54:37;3.75;;;1.67;;
17965;SDS011;9108;53.204;10.424;2023-06-04T00:57:04;3.78;;;1.88;;
17965;SDS011;9108;53.204;10.424;2023-06-04T00:59:33;4.38;;;2.00;;
17965;SDS011;9108;53.204;10.424;2023-06-04T01:02:02;4.70;;;1.80;;
17965;SDS011;9108;53.204;10.424;2023-06-04T01:04:32;5.10;;;2.00;;
17965;SDS011;9108;53.204;10.424;2023-06-04T01:07:00;5.45;;;1.90;;
17965;SDS011;9108;53.204;10.424;2023-06-04T01:09:29;3.37;;;2.00;;
17965;SDS011;9108;53.204;10.424;2023-06-04T01:11:57;4.43;;;2.10;;
17965;SDS011;9108;53.204;10.424;2023-06-04T01:14:24;4.28;;;1.98;;
17965;SDS011;9108;53.204;10.424;2023-06-04T01:16:55;5.25;;;1.95;;
17965;SDS011;9108;53.204;10.424;2023-06-04T01:19:36;3.65;;;1.92;;
17965;SDS011;9108;53.204;10.424;2023-06-04T01:22:10;4.78;;;2.03;;
17965;SDS011;9108;53.204;10.424;2023-06-04T01:27:46;4.53;;;2.00;;
17965;SDS011;9108;53.204;10.424;2023-06-04T01:30:15;4.45;;;2.20;;
17965;SDS011;9108;53.204;10.424;2023-06-04T01:32:44;3.40;;;1.70;;
17965;SDS011;9108;53.204;10.424;2023-06-04T01:35:12;3.83;;;1.92;;
17965;SDS011;9108;53.204;10.424;2023-06-04T01:37:39;5.93;;;2.20;;
17965;SDS011;9108;53.204;10.424;2023-06-04T01:40:07;4.83;;;2.00;;
17965;SDS011;9108;53.204;10.424;2023-06-04T01:42:34;3.33;;;1.63;;
17965;SDS011;9108;53.204;10.424;2023-06-04T01:45:01;4.63;;;1.90;;
17965;SDS011;9108;53.204;10.424;2023-06-04T01:47:29;3.35;;;1.92;;
17965;SDS011;9108;53.204;10.424;2023-06-04T01:49:57;4.03;;;2.03;;
17965;SDS011;9108;53.204;10.424;2023-06-04T01:52:25;3.40;;;1.80;;
17965;SDS011;9108;53.204;10.424;2023-06-04T01:54:52;4.20;;;1.98;;
17965;SDS011;9108;53.204;10.424;2023-06-04T01:57:20;4.88;;;2.22;;
17965;SDS011;9108;53.204;10.424;2023-06-04T01:59:47;4.95;;;1.92;;
17965;SDS011;9108;53.204;10.424;2023-06-04T02:02:15;3.88;;;1.83;;
17965;SDS011;9108;53.204;10.424;2023-06-04T02:04:43;3.33;;;1.90;;
17965;SDS011;9108;53.204;10.424;2023-06-04T02:07:13;5.30;;;2.25;;
17965;SDS011;9108;53.204;10.424;2023-06-04T02:09:42;4.07;;;2.05;;
17965;SDS011;9108;53.204;10.424;2023-06-04T02:12:10;5.45;;;2.05;;
17965;SDS011;9108;53.204;10.424;2023-06-04T02:14:37;5.43;;;1.92;;
17965;SDS011;9108;53.204;10.424;2023-06-04T02:17:04;3.72;;;1.92;;
17965;SDS011;9108;53.204;10.424;2023-06-04T02:19:37;4.53;;;2.13;;
17965;SDS011;9108;53.204;10.424;2023-06-04T02:22:05;3.92;;;2.10;;
17965;SDS011;9108;53.204;10.424;2023-06-04T02:24:34;3.42;;;1.90;;
17965;SDS011;9108;53.204;10.424;2023-06-04T02:27:01;7.32;;;2.08;;
17965;SDS011;9108;53.204;10.424;2023-06-04T02:29:28;4.95;;;2.15;;
17965;SDS011;9108;53.204;10.424;2023-06-04T02:31:55;7.43;;;2.42;;
17965;SDS011;9108;53.204;10.424;2023-06-04T02:34:22;5.30;;;2.20;;
17965;SDS011;9108;53.204;10.424;2023-06-04T02:36:50;3.85;;;2.20;;
17965;SDS011;9108;53.204;10.424;2023-06-04T02:39:17;4.30;;;2.25;;
17965;SDS011;9108;53.204;10.424;2023-06-04T02:41:46;4.30;;;2.15;;
17965;SDS011;9108;53.204;10.424;2023-06-04T02:44:13;5.90;;;2.50;;
17965;SDS011;9108;53.204;10.424;2023-06-04T02:46:40;3.73;;;2.20;;
17965;SDS011;9108;53.204;10.424;2023-06-04T02:49:07;4.93;;;2.23;;
17965;SDS011;9108;53.204;10.424;2023-06-04T02:51:34;5.30;;;2.25;;
17965;SDS011;9108;53.204;10.424;2023-06-04T02:54:02;4.00;;;2.05;;
17965;SDS011;9108;53.204;10.424;2023-06-04T02:56:29;4.45;;;2.35;;
17965;SDS011;9108;53.204;10.424;2023-06-04T02:58:58;3.83;;;2.20;;
17965;SDS011;9108;53.204;10.424;2023-06-04T03:01:25;3.72;;;2.30;;
17965;SDS011;9108;53.204;10.424;2023-06-04T03:03:53;5.05;;;2.25;;
17965;SDS011;9108;53.204;10.424;2023-06-04T03:06:21;4.40;;;2.38;;
17965;SDS011;9108;53.204;10.424;2023-06-04T03:08:48;4.10;;;2.40;;
17965;SDS011;9108;53.204;10.424;2023-06-04T03:11:16;6.03;;;2.15;;
17965;SDS011;9108;53.204;10.424;2023-06-04T03:13:44;4.35;;;2.00;;
17965;SDS011;9108;53.204;10.424;2023-06-04T03:16:13;4.07;;;2.28;;
17965;SDS011;9108;53.204;10.424;2023-06-04T03:18:40;4.97;;;2.10;;
17965;SDS011;9108;53.204;10.424;2023-06-04T03:21:07;4.07;;;2.38;;
17965;SDS011;9108;53.204;10.424;2023-06-04T03:23:36;4.53;;;2.10;;
17965;SDS011;9108;53.204;10.424;2023-06-04T03:26:04;3.90;;;2.17;;
17965;SDS011;9108;53.204;10.424;2023-06-04T03:28:31;3.43;;;2.20;;
17965;SDS011;9108;53.204;10.424;2023-06-04T03:30:59;4.10;;;2.35;;
17965;SDS011;9108;53.204;10.424;2023-06-04T03:33:28;5.07;;;2.30;;
17965;SDS011;9108;53.204;10.424;2023-06-04T03:35:55;5.20;;;2.20;;
17965;SDS011;9108;53.204;10.424;2023-06-04T03:38:23;5.10;;;2.28;;
17965;SDS011;9108;53.204;10.424;2023-06-04T03:40:51;4.55;;;2.03;;
17965;SDS011;9108;53.204;10.424;2023-06-04T03:43:18;4.38;;;2.22;;
17965;SDS011;9108;53.204;10.424;2023-06-04T03:45:45;4.38;;;2.13;;
17965;SDS011;9108;53.204;10.424;2023-06-04T03:48:12;3.47;;;1.67;;
17965;SDS011;9108;53.204;10.424;2023-06-04T03:50:41;5.28;;;1.80;;
17965;SDS011;9108;53.204;10.424;2023-06-04T03:53:11;4.13;;;1.80;;
17965;SDS011;9108;53.204;10.424;2023-06-04T03:55:38;5.00;;;2.00;;
17965;SDS011;9108;53.204;10.424;2023-06-04T03:58:05;4.03;;;1.90;;
17965;SDS011;9108;53.204;10.424;2023-06-04T04:00:34;3.70;;;1.85;;
17965;SDS011;9108;53.204;10.424;2023-06-04T04:03:01;4.38;;;1.90;;
17965;SDS011;9108;53.204;10.424;2023-06-04T04:05:28;3.75;;;1.77;;
17965;SDS011;9108;53.204;10.424;2023-06-04T04:07:57;3.30;;;1.92;;
17965;SDS011;9108;53.204;10.424;2023-06-04T04:10:24;3.88;;;1.75;;
17965;SDS011;9108;53.204;10.424;2023-06-04T04:12:51;4.00;;;2.00;;
17965;SDS011;9108;53.204;10.424;2023-06-04T04:15:20;3.08;;;1.80;;
17965;SDS011;9108;53.204;10.424;2023-06-04T04:17:47;3.38;;;1.63;;
17965;SDS011;9108;53.204;10.424;2023-06-04T04:20:14;4.03;;;1.70;;
17965;SDS011;9108;53.204;10.424;2023-06-04T04:22:43;4.37;;;1.97;;
17965;SDS011;9108;53.204;10.424;2023-06-04T04:25:11;4.85;;;1.98;;
17965;SDS011;9108;53.204;10.424;2023-06-04T04:27:38;4.60;;;1.93;;
17965;SDS011;9108;53.204;10.424;2023-06-04T04:30:06;3.38;;;1.95;;
17965;SDS011;9108;53.204;10.424;2023-06-04T04:32:34;3.58;;;1.90;;
17965;SDS011;9108;53.204;10.424;2023-06-04T04:35:04;4.70;;;1.80;;
17965;SDS011;9108;53.204;10.424;2023-06-04T04:37:32;2.85;;;1.77;;
17965;SDS011;9108;53.204;10.424;2023-06-04T04:40:04;3.30;;;1.73;;
17965;SDS011;9108;53.204;10.424;2023-06-04T04:42:33;3.47;;;1.90;;
17965;SDS011;9108;53.204;10.424;2023-06-04T04:45:00;3.70;;;1.90;;
17965;SDS011;9108;53.204;10.424;2023-06-04T04:47:27;3.33;;;1.80;;
17965;SDS011;9108;53.204;10.424;2023-06-04T04:49:55;4.45;;;1.67;;
17965;SDS011;9108;53.204;10.424;2023-06-04T04:52:22;4.90;;;2.05;;
17965;SDS011;9108;53.204;10.424;2023-06-04T04:54:49;4.25;;;1.80;;
17965;SDS011;9108;53.204;10.424;2023-06-04T04:57:20;4.70;;;2.10;;
17965;SDS011;9108;53.204;10.424;2023-06-04T04:59:49;2.57;;;1.70;;
17965;SDS011;9108;53.204;10.424;2023-06-04T05:02:16;3.33;;;1.90;;
17965;SDS011;9108;53.204;10.424;2023-06-04T05:04:43;3.97;;;1.80;;
17965;SDS011;9108;53.204;10.424;2023-06-04T05:07:10;2.78;;;1.77;;
17965;SDS011;9108;53.204;10.424;2023-06-04T05:09:37;2.67;;;1.77;;
17965;SDS011;9108;53.204;10.424;2023-06-04T05:12:05;3.85;;;1.90;;
17965;SDS011;9108;53.204;10.424;2023-06-04T05:14:32;5.60;;;1.92;;
17965;SDS011;9108;53.204;10.424;2023-06-04T05:17:02;2.90;;;1.70;;
17965;SDS011;9108;53.204;10.424;2023-06-04T05:19:29;3.15;;;1.90;;
17965;SDS011;9108;53.204;10.424;2023-06-04T05:21:58;3.60;;;1.98;;
17965;SDS011;9108;53.204;10.424;2023-06-04T05:24:25;3.60;;;1.83;;
17965;SDS011;9108;53.204;10.424;2023-06-04T05:26:53;2.73;;;1.90;;
17965;SDS011;9108;53.204;10.424;2023-06-04T05:29:21;3.58;;;1.80;;
17965;SDS011;9108;53.204;10.424;2023-06-04T05:31:48;3.42;;;1.80;;
17965;SDS011;9108;53.204;10.424;2023-06-04T05:34:17;4.82;;;2.05;;
17965;SDS011;9108;53.204;10.424;2023-06-04T05:36:44;4.82;;;1.80;;
17965;SDS011;9108;53.204;10.424;2023-06-04T05:39:11;4.22;;;1.60;;
17965;SDS011;9108;53.204;10.424;2023-06-04T05:41:39;3.17;;;1.55;;
17965;SDS011;9108;53.204;10.424;2023-06-04T05:44:07;3.42;;;1.80;;
17965;SDS011;9108;53.204;10.424;2023-06-04T05:46:34;3.85;;;1.85;;
17965;SDS011;9108;53.204;10.424;2023-06-04T05:49:01;2.92;;;1.45;;
17965;SDS011;9108;53.204;10.424;2023-06-04T05:51:30;3.10;;;1.60;;
17965;SDS011;9108;53.204;10.424;2023-06-04T05:53:57;2.47;;;1.50;;
17965;SDS011;9108;53.204;10.424;2023-06-04T05:56:24;2.67;;;1.60;;
17965;SDS011;9108;53.204;10.424;2023-06-04T05:58:52;4.10;;;1.60;;
17965;SDS011;9108;53.204;10.424;2023-06-04T06:01:19;3.15;;;1.50;;
17965;SDS011;9108;53.204;10.424;2023-06-04T06:03:46;3.70;;;1.70;;
17965;SDS011;9108;53.204;10.424;2023-06-04T06:06:14;2.72;;;1.55;;
17965;SDS011;9108;53.204;10.424;2023-06-04T06:08:42;3.22;;;1.38;;
17965;SDS011;9108;53.204;10.424;2023-06-04T06:11:09;2.72;;;1.40;;
17965;SDS011;9108;53.204;10.424;2023-06-04T06:13:36;3.10;;;1.50;;
17965;SDS011;9108;53.204;10.424;2023-06-04T06:16:04;2.65;;;1.50;;
17965;SDS011;9108;53.204;10.424;2023-06-04T06:18:31;2.88;;;1.48;;
17965;SDS011;9108;53.204;10.424;2023-06-04T06:20:58;3.72;;;1.70;;
17965;SDS011;9108;53.204;10.424;2023-06-04T06:23:25;4.27;;;1.70;;
17965;SDS011;9108;53.204;10.424;2023-06-04T06:25:54;3.85;;;1.90;;
17965;SDS011;9108;53.204;10.424;2023-06-04T06:28:22;6.35;;;1.60;;
17965;SDS011;9108;53.204;10.424;2023-06-04T06:30:49;2.95;;;1.80;;
17965;SDS011;9108;53.204;10.424;2023-06-04T06:33:16;4.05;;;1.75;;
17965;SDS011;9108;53.204;10.424;2023-06-04T06:35:46;3.50;;;1.50;;
17965;SDS011;9108;53.204;10.424;2023-06-04T06:38:13;3.15;;;1.50;;
17965;SDS011;9108;53.204;10.424;2023-06-04T06:40:40;2.70;;;1.50;;
17965;SDS011;9108;53.204;10.424;2023-06-04T06:43:09;4.63;;;1.55;;
17965;SDS011;9108;53.204;10.424;2023-06-04T06:45:36;3.20;;;1.20;;
17965;SDS011;9108;53.204;10.424;2023-06-04T06:48:03;2.17;;;1.25;;
17965;SDS011;9108;53.204;10.424;2023-06-04T06:50:30;2.15;;;1.30;;
17965;SDS011;9108;53.204;10.424;2023-06-04T06:53:00;3.35;;;1.35;;
17965;SDS011;9108;53.204;10.424;2023-06-04T06:55:27;1.92;;;1.17;;
17965;SDS011;9108;53.204;10.424;2023-06-04T06:57:55;3.65;;;1.20;;
17965;SDS011;9108;53.204;10.424;2023-06-04T07:00:23;1.63;;;1.00;;
17965;SDS011;9108;53.204;10.424;2023-06-04T07:02:50;2.53;;;1.00;;
17965;SDS011;9108;53.204;10.424;2023-06-04T07:05:17;2.23;;;0.93;;
17965;SDS011;9108;53.204;10.424;2023-06-04T07:07:45;2.35;;;1.00;;
17965;SDS011;9108;53.204;10.424;2023-06-04T07:10:13;2.40;;;0.90;;
17965;SDS011;9108;53.204;10.424;2023-06-04T07:12:40;2.60;;;1.00;;
17965;SDS011;9108;53.204;10.424;2023-06-04T07:15:07;4.45;;;0.90;;
17965;SDS011;9108;53.204;10.424;2023-06-04T07:17:36;3.63;;;0.98;;
17965;SDS011;9108;53.204;10.424;2023-06-04T07:20:03;2.22;;;0.90;;
17965;SDS011;9108;53.204;10.424;2023-06-04T07:22:31;1.90;;;0.90;;
17965;SDS011;9108;53.204;10.424;2023-06-04T07:24:58;0.95;;;0.70;;
17965;SDS011;9108;53.204;10.424;2023-06-04T07:27:26;1.95;;;0.95;;
17965;SDS011;9108;53.204;10.424;2023-06-04T07:29:53;2.10;;;0.80;;
17965;SDS011;9108;53.204;10.424;2023-06-04T07:32:20;3.40;;;0.98;;
17965;SDS011;9108;53.204;10.424;2023-06-04T07:34:49;1.27;;;0.90;;
17965;SDS011;9108;53.204;10.424;2023-06-04T07:37:16;1.95;;;0.80;;
17965;SDS011;9108;53.204;10.424;2023-06-04T07:39:43;2.30;;;0.90;;
17965;SDS011;9108;53.204;10.424;2023-06-04T07:42:10;2.42;;;0.90;;
17965;SDS011;9108;53.204;10.424;2023-06-04T07:44:37;1.27;;;0.80;;
17965;SDS011;9108;53.204;10.424;2023-06-04T07:47:05;2.83;;;0.80;;
17965;SDS011;9108;53.204;10.424;2023-06-04T07:49:32;3.35;;;0.93;;
17965;SDS011;9108;53.204;10.424;2023-06-04T07:52:01;1.60;;;0.80;;
17965;SDS011;9108;53.204;10.424;2023-06-04T07:54:28;1.55;;;0.80;;
17965;SDS011;9108;53.204;10.424;2023-06-04T07:56:56;1.92;;;0.70;;
17965;SDS011;9108;53.204;10.424;2023-06-04T07:59:23;1.45;;;0.85;;
17965;SDS011;9108;53.204;10.424;2023-06-04T08:01:50;3.50;;;0.90;;
17965;SDS011;9108;53.204;10.424;2023-06-04T08:04:17;2.50;;;0.90;;
17965;SDS011;9108;53.204;10.424;2023-06-04T08:06:45;2.47;;;0.77;;
17965;SDS011;9108;53.204;10.424;2023-06-04T08:09:14;3.00;;;0.70;;
17965;SDS011;9108;53.204;10.424;2023-06-04T08:11:41;2.30;;;1.00;;
17965;SDS011;9108;53.204;10.424;2023-06-04T08:14:09;1.90;;;0.90;;
17965;SDS011;9108;53.204;10.424;2023-06-04T08:16:37;2.42;;;0.80;;
17965;SDS011;9108;53.204;10.424;2023-06-04T08:19:05;1.30;;;0.75;;
17965;SDS011;9108;53.204;10.424;2023-06-04T08:21:32;2.22;;;0.95;;
17965;SDS011;9108;53.204;10.424;2023-06-04T08:24:00;2.38;;;0.80;;
17965;SDS011;9108;53.204;10.424;2023-06-04T08:26:29;2.70;;;0.90;;
17965;SDS011;9108;53.204;10.424;2023-06-04T08:28:59;2.13;;;0.82;;
17965;SDS011;9108;53.204;10.424;2023-06-04T08:31:26;1.92;;;0.80;;
17965;SDS011;9108;53.204;10.424;2023-06-04T08:33:53;1.83;;;0.80;;
17965;SDS011;9108;53.204;10.424;2023-06-04T08:36:23;1.58;;;0.80;;
17965;SDS011;9108;53.204;10.424;2023-06-04T08:38:50;2.00;;;0.77;;
17965;SDS011;9108;53.204;10.424;2023-06-04T08:41:20;1.77;;;0.80;;
17965;SDS011;9108;53.204;10.424;2023-06-04T08:43:52;2.33;;;0.80;;
17965;SDS011;9108;53.204;10.424;2023-06-04T08:46:22;2.88;;;1.00;;
17965;SDS011;9108;53.204;10.424;2023-06-04T08:48:50;1.40;;;0.95;;
17965;SDS011;9108;53.204;10.424;2023-06-04T08:51:17;2.90;;;1.00;;
17965;SDS011;9108;53.204;10.424;2023-06-04T08:53:44;2.50;;;1.08;;
17965;SDS011;9108;53.204;10.424;2023-06-04T08:56:15;2.80;;;0.90;;
17965;SDS011;9108;53.204;10.424;2023-06-04T08:58:43;3.47;;;0.90;;
17965;SDS011;9108;53.204;10.424;2023-06-04T09:01:11;2.10;;;0.90;;
17965;SDS011;9108;53.204;10.424;2023-06-04T09:03:40;4.82;;;0.90;;
17965;SDS011;9108;53.204;10.424;2023-06-04T09:06:07;1.98;;;0.95;;
17965;SDS011;9108;53.204;10.424;2023-06-04T09:08:36;4.10;;;1.30;;
17965;SDS011;9108;53.204;10.424;2023-06-04T09:11:05;2.92;;;1.00;;
17965;SDS011;9108;53.204;10.424;2023-06-04T09:13:32;2.88;;;1.00;;
17965;SDS011;9108;53.204;10.424;2023-06-04T09:15:59;1.92;;;0.90;;
17965;SDS011;9108;53.204;10.424;2023-06-04T09:18:29;2.25;;;0.90;;
17965;SDS011;9108;53.204;10.424;2023-06-04T09:21:02;2.70;;;0.90;;
17965;SDS011;9108;53.204;10.424;2023-06-04T09:23:30;2.00;;;0.95;;
17965;SDS011;9108;53.204;10.424;2023-06-04T09:26:05;2.53;;;0.90;;
17965;SDS011;9108;53.204;10.424;2023-06-04T09:28:33;3.85;;;1.20;;
17965;SDS011;9108;53.204;10.424;2023-06-04T09:31:01;1.98;;;0.90;;
17965;SDS011;9108;53.204;10.424;2023-06-04T09:33:29;3.70;;;0.93;;
17965;SDS011;9108;53.204;10.424;2023-06-04T09:35:57;2.97;;;1.10;;
17965;SDS011;9108;53.204;10.424;2023-06-04T09:38:31;2.38;;;1.00;;
17965;SDS011;9108;53.204;10.424;2023-06-04T09:40:59;2.63;;;0.90;;
17965;SDS011;9108;53.204;10.424;2023-06-04T09:43:29;4.50;;;1.10;;
17965;SDS011;9108;53.204;10.424;2023-06-04T09:46:07;2.90;;;1.00;;
17965;SDS011;9108;53.204;10.424;2023-06-04T09:48:38;1.85;;;0.90;;
17965;SDS011;9108;53.204;10.424;2023-06-04T09:51:06;3.33;;;1.00;;
17965;SDS011;9108;53.204;10.424;2023-06-04T09:53:33;1.80;;;0.82;;
17965;SDS011;9108;53.204;10.424;2023-06-04T09:56:04;2.33;;;1.00;;
17965;SDS011;9108;53.204;10.424;2023-06-04T09:58:37;4.22;;;0.95;;
17965;SDS011;9108;53.204;10.424;2023-06-04T10:01:05;3.75;;;1.00;;
17965;SDS011;9108;53.204;10.424;2023-06-04T10:03:32;2.80;;;1.00;;
17965;SDS011;9108;53.204;10.424;2023-06-04T10:06:02;2.80;;;0.90;;
17965;SDS011;9108;53.204;10.424;2023-06-04T10:08:30;3.37;;;1.10;;
17965;SDS011;9108;53.204;10.424;2023-06-04T10:10:59;2.78;;;1.00;;
17965;SDS011;9108;53.204;10.424;2023-06-04T10:13:27;2.47;;;1.02;;
17965;SDS011;9108;53.204;10.424;2023-06-04T10:16:05;2.42;;;1.10;;
17965;SDS011;9108;53.204;10.424;2023-06-04T10:18:33;3.10;;;0.98;;
17965;SDS011;9108;53.204;10.424;2023-06-04T10:21:02;2.67;;;1.10;;
17965;SDS011;9108;53.204;10.424;2023-06-04T10:23:30;2.47;;;1.00;;
17965;SDS011;9108;53.204;10.424;2023-06-04T10:26:00;2.67;;;1.15;;
17965;SDS011;9108;53.204;10.424;2023-06-04T10:28:28;2.05;;;1.00;;
17965;SDS011;9108;53.204;10.424;2023-06-04T10:30:55;2.05;;;0.90;;
17965;SDS011;9108;53.204;10.424;2023-06-04T10:33:22;2.20;;;0.97;;
17965;SDS011;9108;53.204;10.424;2023-06-04T10:35:54;2.85;;;1.05;;
17965;SDS011;9108;53.204;10.424;2023-06-04T10:38:23;1.95;;;0.90;;
17965;SDS011;9108;53.204;10.424;2023-06-04T10:40:50;2.00;;;1.00;;
17965;SDS011;9108;53.204;10.424;2023-06-04T10:43:18;2.10;;;1.08;;
17965;SDS011;9108;53.204;10.424;2023-06-04T10:45:45;2.28;;;1.00;;
17965;SDS011;9108;53.204;10.424;2023-06-04T10:48:12;2.50;;;1.00;;
17965;SDS011;9108;53.204;10.424;2023-06-04T10:50:49;4.65;;;1.10;;
17965;SDS011;9108;53.204;10.424;2023-06-04T10:53:17;3.00;;;1.05;;
17965;SDS011;9108;53.204;10.424;2023-06-04T10:55:47;3.63;;;1.05;;
17965;SDS011;9108;53.204;10.424;2023-06-04T10:58:14;1.85;;;1.00;;
17965;SDS011;9108;53.204;10.424;2023-06-04T11:00:43;2.70;;;1.00;;
17965;SDS011;9108;53.204;10.424;2023-06-04T11:03:21;3.30;;;0.93;;
17965;SDS011;9108;53.204;10.424;2023-06-04T11:05:48;3.42;;;1.20;;
17965;SDS011;9108;53.204;10.424;2023-06-04T11:08:26;1.95;;;1.00;;
17965;SDS011;9108;53.204;10.424;2023-06-04T11:10:55;2.38;;;0.90;;
17965;SDS011;9108;53.204;10.424;2023-06-04T11:13:23;2.85;;;1.00;;
17965;SDS011;9108;53.204;10.424;2023-06-04T11:15:53;2.33;;;1.00;;
17965;SDS011;9108;53.204;10.424;2023-06-04T11:18:21;3.97;;;1.15;;
17965;SDS011;9108;53.204;10.424;2023-06-04T11:20:49;1.90;;;0.93;;
17965;SDS011;9108;53.204;10.424;2023-06-04T11:23:17;1.75;;;0.90;;
17965;SDS011;9108;53.204;10.424;2023-06-04T11:25:44;2.78;;;1.02;;
17965;SDS011;9108;53.204;10.424;2023-06-04T11:28:16;3.03;;;1.20;;
17965;SDS011;9108;53.204;10.424;2023-06-04T11:30:43;1.95;;;0.98;;
17965;SDS011;9108;53.204;10.424;2023-06-04T11:33:11;2.40;;;1.02;;
17965;SDS011;9108;53.204;10.424;2023-06-04T11:35:41;1.70;;;1.17;;
17965;SDS011;9108;53.204;10.424;2023-06-04T11:38:09;3.58;;;1.10;;
17965;SDS011;9108;53.204;10.424;2023-06-04T11:40:36;2.15;;;1.00;;
17965;SDS011;9108;53.204;10.424;2023-06-04T11:43:03;2.33;;;1.00;;
17965;SDS011;9108;53.204;10.424;2023-06-04T11:45:32;2.47;;;1.20;;
17965;SDS011;9108;53.204;10.424;2023-06-04T11:47:59;1.77;;;1.00;;
17965;SDS011;9108;53.204;10.424;2023-06-04T11:50:27;2.35;;;1.10;;
17965;SDS011;9108;53.204;10.424;2023-06-04T11:52:54;3.00;;;1.20;;
17965;SDS011;9108;53.204;10.424;2023-06-04T11:55:21;3.05;;;1.00;;
17965;SDS011;9108;53.204;10.424;2023-06-04T11:57:49;2.88;;;1.10;;
17965;SDS011;9108;53.204;10.424;2023-06-04T12:00:17;2.33;;;1.10;;
17965;SDS011;9108;53.204;10.424;2023-06-04T12:02:50;2.92;;;1.10;;
17965;SDS011;9108;53.204;10.424;2023-06-04T12:05:18;2.13;;;1.30;;
17965;SDS011;9108;53.204;10.424;2023-06-04T12:07:45;2.55;;;1.10;;
17965;SDS011;9108;53.204;10.424;2023-06-04T12:10:15;4.35;;;1.25;;
17965;SDS011;9108;53.204;10.424;2023-06-04T12:12:42;2.63;;;1.10;;
17965;SDS011;9108;53.204;10.424;2023-06-04T12:15:18;3.50;;;1.10;;
17965;SDS011;9108;53.204;10.424;2023-06-04T12:17:51;2.08;;;1.10;;
17965;SDS011;9108;53.204;10.424;2023-06-04T12:20:33;2.25;;;1.10;;
17965;SDS011;9108;53.204;10.424;2023-06-04T12:23:00;1.77;;;1.00;;
17965;SDS011;9108;53.204;10.424;2023-06-04T12:25:28;2.73;;;1.10;;
17965;SDS011;9108;53.204;10.424;2023-06-04T12:27:56;3.80;;;1.10;;
17965;SDS011;9108;53.204;10.424;2023-06-04T12:30:23;1.88;;;1.13;;
17965;SDS011;9108;53.204;10.424;2023-06-04T12:32:52;2.47;;;1.20;;
17965;SDS011;9108;53.204;10.424;2023-06-04T12:35:19;3.38;;;1.15;;
17965;SDS011;9108;53.204;10.424;2023-06-04T12:37:46;2.13;;;1.10;;
17965;SDS011;9108;53.204;10.424;2023-06-04T12:40:13;3.80;;;1.20;;
17965;SDS011;9108;53.204;10.424;2023-06-04T12:42:40;2.40;;;1.20;;
17965;SDS011;9108;53.204;10.424;2023-06-04T12:45:09;3.95;;;1.20;;
17965;SDS011;9108;53.204;10.424;2023-06-04T12:47:36;2.60;;;1.23;;
17965;SDS011;9108;53.204;10.424;2023-06-04T12:50:05;2.63;;;1.20;;
17965;SDS011;9108;53.204;10.424;2023-06-04T12:52:32;3.22;;;1.23;;
17965;SDS011;9108;53.204;10.424;2023-06-04T12:54:59;1.60;;;1.10;;
17965;SDS011;9108;53.204;10.424;2023-06-04T12:57:27;1.95;;;1.10;;
17965;SDS011;9108;53.204;10.424;2023-06-04T12:59:54;2.90;;;1.30;;
17965;SDS011;9108;53.204;10.424;2023-06-04T13:02:22;3.92;;;1.20;;
17965;SDS011;9108;53.204;10.424;2023-06-04T13:04:49;3.17;;;1.17;;
17965;SDS011;9108;53.204;10.424;2023-06-04T13:07:21;3.30;;;1.30;;
17965;SDS011;9108;53.204;10.424;2023-06-04T13:09:48;2.42;;;1.20;;
17965;SDS011;9108;53.204;10.424;2023-06-04T13:12:15;2.78;;;1.20;;
17965;SDS011;9108;53.204;10.424;2023-06-04T13:14:42;2.40;;;1.20;;
17965;SDS011;9108;53.204;10.424;2023-06-04T13:17:09;3.72;;;1.20;;
17965;SDS011;9108;53.204;10.424;2023-06-04T13:19:36;3.03;;;1.17;;
17965;SDS011;9108;53.204;10.424;2023-06-04T13:22:04;2.53;;;1.10;;
17965;SDS011;9108;53.204;10.424;2023-06-04T13:24:32;2.20;;;1.13;;
17965;SDS011;9108;53.204;10.424;2023-06-04T13:26:59;4.13;;;1.20;;
17965;SDS011;9108;53.204;10.424;2023-06-04T13:29:26;3.20;;;1.43;;
17965;SDS011;9108;53.204;10.424;2023-06-04T13:31:58;3.60;;;1.23;;
17965;SDS011;9108;53.204;10.424;2023-06-04T13:34:25;2.35;;;1.20;;
17965;SDS011;9108;53.204;10.424;2023-06-04T13:36:53;2.85;;;1.23;;
17965;SDS011;9108;53.204;10.424;2023-06-04T13:39:20;2.05;;;1.13;;
17965;SDS011;9108;53.204;10.424;2023-06-04T13:41:48;2.42;;;1.20;;
17965;SDS011;9108;53.204;10.424;2023-06-04T13:44:16;4.10;;;1.50;;
17965;SDS011;9108;53.204;10.424;2023-06-04T13:46:44;2.78;;;1.40;;
17965;SDS011;9108;53.204;10.424;2023-06-04T13:49:11;6.18;;;1.30;;
17965;SDS011;9108;53.204;10.424;2023-06-04T13:51:38;3.03;;;1.17;;
17965;SDS011;9108;53.204;10.424;2023-06-04T13:54:05;4.38;;;1.25;;
17965;SDS011;9108;53.204;10.424;2023-06-04T13:56:32;3.00;;;1.13;;
17965;SDS011;9108;53.204;10.424;2023-06-04T13:59:01;4.05;;;1.15;;
17965;SDS011;9108;53.204;10.424;2023-06-04T14:01:29;3.17;;;1.33;;
17965;SDS011;9108;53.204;10.424;2023-06-04T14:03:56;3.50;;;1.17;;
17965;SDS011;9108;53.204;10.424;2023-06-04T14:06:23;2.03;;;1.10;;
17965;SDS011;9108;53.204;10.424;2023-06-04T14:08:50;2.67;;;1.30;;
17965;SDS011;9108;53.204;10.424;2023-06-04T14:11:17;3.45;;;1.27;;
17965;SDS011;9108;53.204;10.424;2023-06-04T14:13:44;5.95;;;1.40;;
17965;SDS011;9108;53.204;10.424;2023-06-04T14:16:13;3.03;;;1.25;;
17965;SDS011;9108;53.204;10.424;2023-06-04T14:18:40;3.42;;;1.17;;
17965;SDS011;9108;53.204;10.424;2023-06-04T14:21:07;2.55;;;1.30;;
17965;SDS011;9108;53.204;10.424;2023-06-04T14:23:35;2.87;;;1.10;;
17965;SDS011;9108;53.204;10.424;2023-06-04T14:26:02;3.50;;;1.33;;
17965;SDS011;9108;53.204;10.424;2023-06-04T14:28:29;3.22;;;1.10;;
17965;SDS011;9108;53.204;10.424;2023-06-04T14:30:56;3.47;;;1.30;;
17965;SDS011;9108;53.204;10.424;2023-06-04T14:33:25;4.22;;;1.35;;
17965;SDS011;9108;53.204;10.424;2023-06-04T14:35:52;10.45;;;1.67;;
17965;SDS011;9108;53.204;10.424;2023-06-04T14:38:19;4.07;;;1.27;;
17965;SDS011;9108;53.204;10.424;2023-06-04T14:40:46;5.00;;;1.50;;
17965;SDS011;9108;53.204;10.424;2023-06-04T14:43:13;3.85;;;1.30;;
17965;SDS011;9108;53.204;10.424;2023-06-04T14:45:40;2.25;;;1.10;;
17965;SDS011;9108;53.204;10.424;2023-06-04T14:48:07;1.90;;;1.10;;
17965;SDS011;9108;53.204;10.424;2023-06-04T14:50:36;5.00;;;1.45;;
17965;SDS011;9108;53.204;10.424;2023-06-04T14:53:03;4.80;;;1.40;;
17965;SDS011;9108;53.204;10.424;2023-06-04T14:55:32;4.30;;;1.50;;